Time;durP1;ratioP1;P1;durP2;ratioP2;P2;SDS_P1;SDS_P2;PMS_P1;PMS_P2;Temp;Humidity;BMP_temperature;BMP_pressure;BME280_temperature;BME280_humidity;BME280_pressure;Samples;Min_cycle;Max_cycle;Signal;HPM_P1;HPM_P2
2023/10/03 00:00:24;;;;;;;9.77;5.85;;;;;;;;;;1044220;28;20057;-67
2023/10/03 00:01:15;;;;;;;10.13;4.95;;;;;;;;;;1043875;28;20052;-68
2023/10/03 00:01:46;;;;;;;10.05;5.40;;;;;;;;;;1045008;28;20045;-67
2023/10/03 00:02:16;;;;;;;11.10;5.93;;;;;;;;;;1044940;28;20513;-68
2023/10/03 00:02:49;;;;;;;11.18;6.00;;;;;;;;;;1044655;28;20044;-66
2023/10/03 00:03:20;;;;;;;10.55;5.55;;;;;;;;;;1043491;28;20454;-68
2023/10/03 00:03:50;;;;;;;9.65;5.50;;;;;;;;;;1045023;28;20421;-67
2023/10/03 00:04:21;;;;;;;11.82;5.90;;;;;;;;;;1045081;28;20183;-66
2023/10/03 00:04:52;;;;;;;9.25;5.60;;;;;;;;;;1044817;28;20067;-69
2023/10/03 00:05:28;;;;;;;13.48;5.78;;;;;;;;;;1046021;28;20090;-66
2023/10/03 00:05:58;;;;;;;13.35;6.40;;;;;;;;;;1045993;28;20113;-68
2023/10/03 00:06:29;;;;;;;7.47;5.05;;;;;;;;;;1044717;28;20130;-67
2023/10/03 00:07:00;;;;;;;9.82;5.80;;;;;;;;;;1045885;28;20138;-67
2023/10/03 00:07:31;;;;;;;12.05;5.90;;;;;;;;;;1045406;28;20396;-68
2023/10/03 00:08:06;;;;;;;10.70;5.78;;;;;;;;;;1045604;28;20098;-68
2023/10/03 00:08:37;;;;;;;11.85;6.07;;;;;;;;;;1044690;28;20433;-69
2023/10/03 00:09:08;;;;;;;10.10;6.03;;;;;;;;;;1046399;28;20485;-68
2023/10/03 00:09:39;;;;;;;8.98;5.90;;;;;;;;;;1040712;28;20053;-68
2023/10/03 00:10:09;;;;;;;10.80;5.97;;;;;;;;;;1042748;28;20086;-67
2023/10/03 00:10:40;;;;;;;10.00;5.72;;;;;;;;;;1039992;28;20049;-67
2023/10/03 00:11:18;;;;;;;11.68;5.63;;;;;;;;;;1041734;28;20052;-68
2023/10/03 00:11:49;;;;;;;11.55;5.88;;;;;;;;;;1040589;28;20053;-68
2023/10/03 00:12:20;;;;;;;9.35;5.75;;;;;;;;;;1041806;28;20049;-67
2023/10/03 00:12:51;;;;;;;13.75;5.57;;;;;;;;;;1041173;28;20049;-68
2023/10/03 00:13:24;;;;;;;10.20;6.10;;;;;;;;;;1043247;28;20052;-68
2023/10/03 00:13:54;;;;;;;10.60;5.40;;;;;;;;;;1045236;28;20044;-66
2023/10/03 00:14:26;;;;;;;12.88;5.63;;;;;;;;;;1045867;28;20131;-68
2023/10/03 00:14:57;;;;;;;13.68;5.93;;;;;;;;;;1045540;28;20037;-67
2023/10/03 00:15:28;;;;;;;8.45;5.25;;;;;;;;;;1044064;28;21318;-68
2023/10/03 00:15:58;;;;;;;11.15;5.32;;;;;;;;;;1044563;28;20068;-67
2023/10/03 00:16:29;;;;;;;11.43;5.90;;;;;;;;;;1046406;28;20048;-68
2023/10/03 00:17:00;;;;;;;11.40;6.00;;;;;;;;;;1044410;28;20052;-68
2023/10/03 00:17:30;;;;;;;12.40;5.78;;;;;;;;;;1044787;28;20706;-67
2023/10/03 00:18:01;;;;;;;11.75;6.07;;;;;;;;;;1045187;28;20053;-69
2023/10/03 00:18:31;;;;;;;10.93;5.65;;;;;;;;;;1045397;28;20053;-69
2023/10/03 00:19:02;;;;;;;12.90;5.50;;;;;;;;;;1044013;28;20052;-68
2023/10/03 00:19:33;;;;;;;12.23;6.13;;;;;;;;;;1043470;28;20053;-67
2023/10/03 00:20:04;;;;;;;8.15;5.18;;;;;;;;;;1044162;28;20056;-66
2023/10/03 00:20:36;;;;;;;9.25;5.57;;;;;;;;;;1045883;28;20072;-68
2023/10/03 00:21:07;;;;;;;10.73;5.90;;;;;;;;;;1044912;28;20075;-67
2023/10/03 00:21:37;;;;;;;8.60;5.55;;;;;;;;;;1044782;28;20480;-67
2023/10/03 00:22:08;;;;;;;9.90;5.65;;;;;;;;;;1043150;28;20056;-68
2023/10/03 00:22:40;;;;;;;12.77;5.72;;;;;;;;;;1045650;28;20044;-68
2023/10/03 00:23:10;;;;;;;10.40;5.57;;;;;;;;;;1044005;28;21086;-68
2023/10/03 00:23:41;;;;;;;13.48;6.53;;;;;;;;;;1045396;28;20048;-68
2023/10/03 00:24:11;;;;;;;9.95;5.82;;;;;;;;;;1043971;28;20056;-68
2023/10/03 00:24:42;;;;;;;8.27;5.10;;;;;;;;;;1046653;28;20402;-68
2023/10/03 00:25:23;;;;;;;10.40;5.78;;;;;;;;;;1044379;28;20041;-68
2023/10/03 00:25:54;;;;;;;10.70;5.43;;;;;;;;;;1042904;28;20052;-67
2023/10/03 00:26:25;;;;;;;11.88;5.90;;;;;;;;;;1044364;28;20063;-68
2023/10/03 00:26:55;;;;;;;9.15;5.88;;;;;;;;;;1045687;28;20135;-67
2023/10/03 00:27:25;;;;;;;9.50;6.03;;;;;;;;;;1043236;28;20093;-68
2023/10/03 00:28:00;;;;;;;11.07;5.88;;;;;;;;;;1045249;28;20060;-67
2023/10/03 00:28:33;;;;;;;9.85;6.30;;;;;;;;;;1044250;28;20098;-67
2023/10/03 00:29:04;;;;;;;10.40;6.28;;;;;;;;;;1045928;28;20043;-68
2023/10/03 00:29:34;;;;;;;10.32;5.80;;;;;;;;;;1043093;28;20075;-68
2023/10/03 00:30:07;;;;;;;10.32;5.93;;;;;;;;;;1043941;28;20598;-67
2023/10/03 00:30:39;;;;;;;12.02;6.60;;;;;;;;;;1044184;28;20067;-67
2023/10/03 00:31:11;;;;;;;9.75;6.13;;;;;;;;;;1044643;28;20049;-67
2023/10/03 00:31:42;;;;;;;11.23;6.07;;;;;;;;;;1044238;28;20495;-68
2023/10/03 00:32:12;;;;;;;9.10;5.57;;;;;;;;;;1044207;28;20725;-68
2023/10/03 00:32:43;;;;;;;10.88;6.38;;;;;;;;;;1044576;28;20055;-68
2023/10/03 00:33:14;;;;;;;12.30;6.30;;;;;;;;;;1046216;28;20060;-66
2023/10/03 00:33:44;;;;;;;9.10;5.78;;;;;;;;;;1044771;28;20055;-66
2023/10/03 00:34:15;;;;;;;13.85;6.35;;;;;;;;;;1045125;28;20079;-67
2023/10/03 00:34:45;;;;;;;11.75;6.43;;;;;;;;;;1043923;28;20562;-68
2023/10/03 00:35:17;;;;;;;8.55;6.07;;;;;;;;;;1043918;28;20124;-67
2023/10/03 00:35:47;;;;;;;10.00;5.45;;;;;;;;;;1046040;28;20041;-67
2023/10/03 00:36:24;;;;;;;8.80;5.80;;;;;;;;;;1044842;28;20041;-67
2023/10/03 00:36:54;;;;;;;9.20;6.13;;;;;;;;;;1045386;28;20544;-67
2023/10/03 00:37:25;;;;;;;13.80;5.90;;;;;;;;;;1043522;28;20551;-68
2023/10/03 00:37:56;;;;;;;9.05;5.65;;;;;;;;;;1046053;28;20102;-67
2023/10/03 00:38:27;;;;;;;11.88;5.88;;;;;;;;;;1042736;28;20037;-67
2023/10/03 00:38:57;;;;;;;10.68;6.15;;;;;;;;;;1044308;28;20054;-68
2023/10/03 00:39:28;;;;;;;14.23;6.00;;;;;;;;;;1043053;28;20064;-69
2023/10/03 00:40:00;;;;;;;9.43;5.43;;;;;;;;;;1044655;28;20049;-67
2023/10/03 00:40:31;;;;;;;10.55;5.88;;;;;;;;;;1043495;28;20051;-67
2023/10/03 00:41:03;;;;;;;12.02;5.97;;;;;;;;;;1045830;28;20604;-68
2023/10/03 00:41:34;;;;;;;12.07;6.25;;;;;;;;;;1044024;28;20056;-68
2023/10/03 00:42:08;;;;;;;9.60;5.75;;;;;;;;;;1045018;28;20048;-68
2023/10/03 00:42:38;;;;;;;10.70;6.00;;;;;;;;;;1044224;28;20522;-68
2023/10/03 00:43:11;;;;;;;8.95;6.05;;;;;;;;;;1045073;28;20496;-67
2023/10/03 00:43:58;;;;;;;12.05;6.07;;;;;;;;;;1045994;28;20101;-67
2023/10/03 00:44:29;;;;;;;8.25;5.45;;;;;;;;;;1045599;28;20052;-68
2023/10/03 00:44:59;;;;;;;9.65;6.15;;;;;;;;;;1045128;28;20040;-67
2023/10/03 00:45:31;;;;;;;10.30;5.95;;;;;;;;;;1041840;28;20453;-67
2023/10/03 00:46:04;;;;;;;10.55;5.70;;;;;;;;;;1045116;28;20072;-67
2023/10/03 00:46:35;;;;;;;10.77;5.75;;;;;;;;;;1045694;28;20044;-66
2023/10/03 00:47:08;;;;;;;10.90;5.68;;;;;;;;;;1045407;28;20052;-67
2023/10/03 00:47:38;;;;;;;8.50;5.80;;;;;;;;;;1043964;28;20057;-67
2023/10/03 00:48:11;;;;;;;16.08;6.38;;;;;;;;;;1045066;28;20078;-67
2023/10/03 00:48:42;;;;;;;9.77;5.95;;;;;;;;;;1044591;28;20045;-68
2023/10/03 00:49:14;;;;;;;9.65;6.10;;;;;;;;;;1044785;28;20048;-67
2023/10/03 00:49:45;;;;;;;12.85;5.82;;;;;;;;;;1041428;28;20044;-67
2023/10/03 00:50:19;;;;;;;8.95;6.40;;;;;;;;;;1041971;28;20053;-67
2023/10/03 00:50:51;;;;;;;10.57;6.03;;;;;;;;;;1045120;28;20062;-68
2023/10/03 00:51:23;;;;;;;10.27;6.30;;;;;;;;;;1044369;28;20568;-67
2023/10/03 00:51:54;;;;;;;10.60;5.80;;;;;;;;;;1043268;28;20052;-67
2023/10/03 00:52:26;;;;;;;13.48;6.07;;;;;;;;;;1044807;28;20048;-66
2023/10/03 00:53:04;;;;;;;12.13;5.97;;;;;;;;;;1045366;28;20044;-67
2023/10/03 00:53:35;;;;;;;10.60;5.93;;;;;;;;;;1042855;28;20115;-67
2023/10/03 00:54:06;;;;;;;10.55;6.30;;;;;;;;;;1042769;28;20048;-67
2023/10/03 00:54:37;;;;;;;8.25;5.82;;;;;;;;;;1045300;28;20048;-66
2023/10/03 00:55:11;;;;;;;8.93;6.13;;;;;;;;;;1043975;28;20825;-67
2023/10/03 00:55:47;;;;;;;13.60;5.70;;;;;;;;;;1044680;28;20140;-68
2023/10/03 00:56:19;;;;;;;12.10;5.68;;;;;;;;;;1043277;28;20132;-67
2023/10/03 00:56:50;;;;;;;12.93;6.10;;;;;;;;;;1045875;28;20044;-67
2023/10/03 00:57:22;;;;;;;10.55;6.38;;;;;;;;;;1043076;28;20461;-66
2023/10/03 00:58:06;;;;;;;11.77;6.25;;;;;;;;;;1044857;28;20151;-66
2023/10/03 00:58:37;;;;;;;12.18;5.93;;;;;;;;;;1044372;28;20083;-67
2023/10/03 00:59:09;;;;;;;10.10;5.82;;;;;;;;;;1045053;28;20052;-67
2023/10/03 00:59:39;;;;;;;10.85;5.60;;;;;;;;;;1043313;28;20757;-67
2023/10/03 01:00:17;;;;;;;9.85;6.00;;;;;;;;;;1044479;28;20522;-67
2023/10/03 01:00:49;;;;;;;11.77;6.45;;;;;;;;;;1044907;28;20501;-67
2023/10/03 01:01:19;;;;;;;11.77;6.32;;;;;;;;;;1044636;28;20532;-67
2023/10/03 01:01:50;;;;;;;10.05;6.00;;;;;;;;;;1044302;28;20062;-68
2023/10/03 01:02:21;;;;;;;10.50;5.60;;;;;;;;;;1045400;28;20150;-67
2023/10/03 01:02:52;;;;;;;10.38;5.72;;;;;;;;;;1044930;28;20060;-67
2023/10/03 01:03:28;;;;;;;10.15;6.07;;;;;;;;;;1043885;28;20074;-67
2023/10/03 01:04:01;;;;;;;11.23;6.38;;;;;;;;;;1044680;28;20067;-67
2023/10/03 01:04:32;;;;;;;10.55;5.60;;;;;;;;;;1043419;28;20098;-67
2023/10/03 01:05:03;;;;;;;10.77;6.38;;;;;;;;;;1044917;28;20801;-68
2023/10/03 01:05:34;;;;;;;12.38;6.15;;;;;;;;;;1044864;28;20068;-67
2023/10/03 01:06:10;;;;;;;13.60;6.38;;;;;;;;;;1046039;28;20056;-66
2023/10/03 01:06:41;;;;;;;9.32;5.68;;;;;;;;;;1045280;28;20071;-68
2023/10/03 01:07:11;;;;;;;11.45;6.10;;;;;;;;;;1044611;28;20094;-67
2023/10/03 01:07:48;;;;;;;10.18;6.65;;;;;;;;;;1045400;28;20060;-66
2023/10/03 01:08:23;;;;;;;9.65;5.82;;;;;;;;;;1045160;28;20056;-66
2023/10/03 01:08:54;;;;;;;10.10;5.65;;;;;;;;;;1042913;28;20052;-67
2023/10/03 01:09:28;;;;;;;11.93;6.05;;;;;;;;;;1045502;28;20048;-68
2023/10/03 01:09:58;;;;;;;11.98;6.15;;;;;;;;;;1045392;28;20048;-67
2023/10/03 01:10:28;;;;;;;10.40;5.90;;;;;;;;;;1044813;28;20136;-66
2023/10/03 01:10:59;;;;;;;9.15;5.90;;;;;;;;;;1045492;28;20459;-68
2023/10/03 01:11:30;;;;;;;11.95;6.75;;;;;;;;;;1043927;28;20060;-68
2023/10/03 01:12:01;;;;;;;10.25;5.45;;;;;;;;;;1044154;28;20061;-67
2023/10/03 01:12:31;;;;;;;11.48;6.30;;;;;;;;;;1044406;28;20863;-70
2023/10/03 01:13:14;;;;;;;13.05;6.00;;;;;;;;;;1045798;28;20044;-67
2023/10/03 01:13:47;;;;;;;8.90;6.20;;;;;;;;;;1039272;28;20053;-69
2023/10/03 01:14:18;;;;;;;11.90;6.45;;;;;;;;;;1040378;28;20041;-68
2023/10/03 01:14:49;;;;;;;10.88;6.18;;;;;;;;;;1040695;28;20129;-67
2023/10/03 01:15:20;;;;;;;9.82;6.28;;;;;;;;;;1040194;28;20107;-67
2023/10/03 01:15:52;;;;;;;11.45;6.28;;;;;;;;;;1040937;28;20167;-68
2023/10/03 01:16:31;;;;;;;10.57;6.35;;;;;;;;;;1043826;28;20398;-67
2023/10/03 01:17:03;;;;;;;13.60;6.03;;;;;;;;;;1045187;28;20044;-68
2023/10/03 01:17:35;;;;;;;10.40;6.20;;;;;;;;;;1040015;28;20049;-67
2023/10/03 01:18:09;;;;;;;9.85;5.63;;;;;;;;;;1042556;28;20144;-68
2023/10/03 01:18:41;;;;;;;11.80;6.38;;;;;;;;;;1042862;28;20061;-68
2023/10/03 01:19:20;;;;;;;10.82;5.78;;;;;;;;;;1039873;28;20143;-70
2023/10/03 01:19:51;;;;;;;9.93;6.47;;;;;;;;;;1045689;28;20058;-68
2023/10/03 01:20:25;;;;;;;9.57;5.50;;;;;;;;;;1044253;28;20142;-67
2023/10/03 01:21:00;;;;;;;10.70;6.50;;;;;;;;;;1045349;28;20048;-68
2023/10/03 01:21:32;;;;;;;10.27;6.30;;;;;;;;;;1042303;28;20056;-68
2023/10/03 01:22:04;;;;;;;11.55;6.25;;;;;;;;;;1046535;28;20072;-67
2023/10/03 01:22:39;;;;;;;10.52;6.10;;;;;;;;;;1044403;28;20049;-68
2023/10/03 01:23:10;;;;;;;12.15;6.38;;;;;;;;;;1045368;28;20133;-67
2023/10/03 01:23:41;;;;;;;11.05;6.20;;;;;;;;;;1042965;28;20591;-67
2023/10/03 01:24:20;;;;;;;9.30;6.10;;;;;;;;;;1046502;28;20098;-67
2023/10/03 01:24:51;;;;;;;12.40;5.63;;;;;;;;;;1045876;28;20106;-68
2023/10/03 01:25:22;;;;;;;9.52;5.80;;;;;;;;;;1044720;28;20186;-67
2023/10/03 01:25:53;;;;;;;9.80;6.20;;;;;;;;;;1044239;28;20064;-67
2023/10/03 01:26:24;;;;;;;14.70;5.80;;;;;;;;;;1045521;28;20393;-67
2023/10/03 01:26:55;;;;;;;11.60;6.30;;;;;;;;;;1046211;28;21876;-68
2023/10/03 01:27:25;;;;;;;10.20;6.40;;;;;;;;;;1046120;28;20737;-67
2023/10/03 01:27:56;;;;;;;13.90;6.85;;;;;;;;;;1046191;28;20045;-67
2023/10/03 01:28:27;;;;;;;13.50;6.45;;;;;;;;;;1045277;28;20103;-67
2023/10/03 01:28:59;;;;;;;11.43;5.75;;;;;;;;;;1045909;28;20738;-68
2023/10/03 01:29:30;;;;;;;9.93;5.80;;;;;;;;;;1044756;28;20053;-68
2023/10/03 01:30:01;;;;;;;9.25;5.93;;;;;;;;;;1046795;28;20051;-67
2023/10/03 01:30:31;;;;;;;12.25;5.88;;;;;;;;;;1045601;28;20511;-69
2023/10/03 01:31:02;;;;;;;8.63;6.07;;;;;;;;;;1045740;28;20044;-67
2023/10/03 01:31:32;;;;;;;12.55;6.43;;;;;;;;;;1045221;28;20059;-69
2023/10/03 01:32:03;;;;;;;9.85;6.22;;;;;;;;;;1044740;28;20048;-67
2023/10/03 01:32:38;;;;;;;8.07;5.55;;;;;;;;;;1044018;28;20048;-67
2023/10/03 01:33:10;;;;;;;10.20;6.15;;;;;;;;;;1043859;28;20403;-68
2023/10/03 01:33:41;;;;;;;10.32;6.32;;;;;;;;;;1046206;28;20056;-68
2023/10/03 01:34:11;;;;;;;8.60;6.13;;;;;;;;;;1045693;28;20048;-67
2023/10/03 01:34:42;;;;;;;13.52;6.30;;;;;;;;;;1045050;28;20429;-67
2023/10/03 01:35:13;;;;;;;11.77;6.35;;;;;;;;;;1045794;28;20048;-68
2023/10/03 01:35:44;;;;;;;10.50;6.43;;;;;;;;;;1045881;28;20055;-69
2023/10/03 01:36:15;;;;;;;11.55;6.50;;;;;;;;;;1045720;28;20079;-69
2023/10/03 01:36:47;;;;;;;10.05;5.85;;;;;;;;;;1046347;28;20056;-67
2023/10/03 01:37:19;;;;;;;9.90;6.10;;;;;;;;;;1045531;28;20458;-69
2023/10/03 01:37:50;;;;;;;10.35;6.30;;;;;;;;;;1046712;28;20131;-69
2023/10/03 01:38:20;;;;;;;10.20;5.95;;;;;;;;;;1045363;28;20056;-68
2023/10/03 01:38:51;;;;;;;12.43;5.60;;;;;;;;;;1045748;28;20052;-68
2023/10/03 01:39:23;;;;;;;11.30;6.75;;;;;;;;;;1044589;28;20098;-68
2023/10/03 01:39:54;;;;;;;10.07;5.72;;;;;;;;;;1045401;28;20075;-69
2023/10/03 01:40:26;;;;;;;14.95;6.65;;;;;;;;;;1044725;28;20059;-68
2023/10/03 01:40:58;;;;;;;13.30;6.30;;;;;;;;;;1046363;28;20447;-69
2023/10/03 01:41:29;;;;;;;11.45;6.03;;;;;;;;;;1043589;28;20056;-69
2023/10/03 01:41:59;;;;;;;10.55;6.00;;;;;;;;;;1045744;28;20124;-67
2023/10/03 01:42:29;;;;;;;11.18;6.18;;;;;;;;;;1045975;28;20099;-69
2023/10/03 01:43:00;;;;;;;11.30;6.38;;;;;;;;;;1045466;28;20090;-68
2023/10/03 01:43:30;;;;;;;11.25;6.10;;;;;;;;;;1043560;28;20056;-68
2023/10/03 01:44:01;;;;;;;14.43;6.15;;;;;;;;;;1046293;28;20067;-67
2023/10/03 01:44:32;;;;;;;9.70;6.22;;;;;;;;;;1045655;28;20052;-67
2023/10/03 01:45:03;;;;;;;11.98;5.88;;;;;;;;;;1046370;28;20037;-67
2023/10/03 01:45:34;;;;;;;10.02;6.13;;;;;;;;;;1043252;28;20677;-69
2023/10/03 01:46:04;;;;;;;12.40;6.05;;;;;;;;;;1045299;28;20557;-68
2023/10/03 01:46:35;;;;;;;12.20;6.00;;;;;;;;;;1045781;28;20079;-68
2023/10/03 01:47:06;;;;;;;13.40;6.93;;;;;;;;;;1045517;28;20501;-68
2023/10/03 01:47:40;;;;;;;10.65;6.50;;;;;;;;;;1046112;28;20052;-68
2023/10/03 01:48:12;;;;;;;11.32;6.55;;;;;;;;;;1046124;28;20048;-68
2023/10/03 01:48:42;;;;;;;11.63;6.13;;;;;;;;;;1046145;28;20045;-67
2023/10/03 01:49:14;;;;;;;13.35;6.22;;;;;;;;;;1046223;28;20041;-69
2023/10/03 01:49:45;;;;;;;11.95;6.32;;;;;;;;;;1045902;28;20036;-67
2023/10/03 01:50:17;;;;;;;8.27;6.13;;;;;;;;;;1043900;28;20045;-67
2023/10/03 01:50:53;;;;;;;12.35;7.28;;;;;;;;;;1046403;28;20769;-68
2023/10/03 01:51:24;;;;;;;12.25;5.65;;;;;;;;;;1044680;28;20055;-67
2023/10/03 01:51:55;;;;;;;12.35;6.00;;;;;;;;;;1045293;28;20619;-67
2023/10/03 01:52:26;;;;;;;14.60;6.45;;;;;;;;;;1043964;28;20591;-67
2023/10/03 01:52:57;;;;;;;12.82;6.65;;;;;;;;;;1045906;28;20052;-68
2023/10/03 01:53:29;;;;;;;15.95;6.60;;;;;;;;;;1044052;28;20055;-68
2023/10/03 01:54:00;;;;;;;14.70;6.68;;;;;;;;;;1045512;28;20052;-68
2023/10/03 01:54:30;;;;;;;9.93;6.10;;;;;;;;;;1045142;28;20048;-69
2023/10/03 01:55:02;;;;;;;12.80;6.70;;;;;;;;;;1045787;28;20063;-67
2023/10/03 01:55:33;;;;;;;10.30;5.40;;;;;;;;;;1044937;28;20036;-68
2023/10/03 01:56:05;;;;;;;12.00;6.80;;;;;;;;;;1046937;28;20048;-67
2023/10/03 01:56:36;;;;;;;9.40;6.82;;;;;;;;;;1042202;28;20048;-70
2023/10/03 01:57:07;;;;;;;12.00;7.57;;;;;;;;;;1046181;28;20067;-68
2023/10/03 01:57:39;;;;;;;11.15;7.05;;;;;;;;;;1045012;28;20101;-69
2023/10/03 01:58:10;;;;;;;12.80;5.97;;;;;;;;;;1046688;28;20047;-68
2023/10/03 01:58:40;;;;;;;14.70;6.75;;;;;;;;;;1045637;28;20059;-68
2023/10/03 01:59:11;;;;;;;11.88;6.53;;;;;;;;;;1046489;28;20071;-68
2023/10/03 01:59:41;;;;;;;10.85;6.53;;;;;;;;;;1043454;28;20071;-67
2023/10/03 02:00:26;;;;;;;11.70;6.75;;;;;;;;;;1043174;28;20067;-69
2023/10/03 02:00:56;;;;;;;9.10;6.18;;;;;;;;;;1045520;28;20106;-68
2023/10/03 02:01:28;;;;;;;9.23;6.45;;;;;;;;;;1044187;28;20098;-67
2023/10/03 02:01:59;;;;;;;12.85;6.18;;;;;;;;;;1043366;28;20037;-68
2023/10/03 02:02:29;;;;;;;11.77;6.55;;;;;;;;;;1043311;28;20052;-67
2023/10/03 02:03:05;;;;;;;9.02;6.22;;;;;;;;;;1044289;28;20048;-69
2023/10/03 02:03:36;;;;;;;10.65;6.93;;;;;;;;;;1045204;28;20055;-67
2023/10/03 02:04:06;;;;;;;10.55;6.53;;;;;;;;;;1044728;28;20060;-67
2023/10/03 02:04:37;;;;;;;11.43;6.78;;;;;;;;;;1044685;28;20056;-67
2023/10/03 02:05:08;;;;;;;11.38;6.63;;;;;;;;;;1046271;28;20053;-68
2023/10/03 02:05:42;;;;;;;12.45;6.55;;;;;;;;;;1045145;28;20058;-68
2023/10/03 02:06:13;;;;;;;12.05;7.28;;;;;;;;;;1046081;28;20053;-70
2023/10/03 02:06:44;;;;;;;11.82;7.10;;;;;;;;;;1046264;28;20435;-68
2023/10/03 02:07:16;;;;;;;12.57;6.43;;;;;;;;;;1046115;28;20046;-67
2023/10/03 02:07:46;;;;;;;14.55;7.13;;;;;;;;;;1045832;28;20086;-67
2023/10/03 02:08:17;;;;;;;12.27;7.28;;;;;;;;;;1045060;28;20447;-67
2023/10/03 02:08:47;;;;;;;10.68;6.78;;;;;;;;;;1045862;28;20040;-68
2023/10/03 02:09:18;;;;;;;11.00;6.63;;;;;;;;;;1044359;28;20127;-68
2023/10/03 02:09:49;;;;;;;13.25;7.20;;;;;;;;;;1044647;28;20053;-68
2023/10/03 02:10:21;;;;;;;11.30;7.35;;;;;;;;;;1044673;28;20040;-67
2023/10/03 02:10:52;;;;;;;11.82;6.68;;;;;;;;;;1046788;28;20519;-69
2023/10/03 02:11:26;;;;;;;10.77;6.95;;;;;;;;;;1044832;28;20063;-68
2023/10/03 02:11:59;;;;;;;10.75;6.43;;;;;;;;;;1046191;28;20435;-68
2023/10/03 02:12:29;;;;;;;10.68;6.93;;;;;;;;;;1045267;28;20059;-67
2023/10/03 02:13:14;;;;;;;8.05;6.57;;;;;;;;;;1046915;28;20075;-68
2023/10/03 02:13:45;;;;;;;11.40;6.75;;;;;;;;;;1044456;28;20048;-69
2023/10/03 02:14:16;;;;;;;10.45;6.32;;;;;;;;;;1046014;28;20682;-68
2023/10/03 02:14:49;;;;;;;15.48;6.82;;;;;;;;;;1044796;28;20057;-66
2023/10/03 02:15:22;;;;;;;11.45;6.70;;;;;;;;;;1043394;28;20151;-68
2023/10/03 02:15:54;;;;;;;11.93;7.20;;;;;;;;;;1045967;28;20085;-68
2023/10/03 02:16:24;;;;;;;12.80;6.85;;;;;;;;;;1043838;28;20045;-66
2023/10/03 02:16:55;;;;;;;10.15;7.00;;;;;;;;;;1045549;28;20048;-68
2023/10/03 02:17:28;;;;;;;11.48;6.40;;;;;;;;;;1045780;28;20052;-68
2023/10/03 02:17:59;;;;;;;11.80;6.93;;;;;;;;;;1047155;28;20536;-68
2023/10/03 02:18:29;;;;;;;10.82;7.72;;;;;;;;;;1044712;28;20048;-68
2023/10/03 02:19:00;;;;;;;10.65;6.88;;;;;;;;;;1046824;28;20052;-68
2023/10/03 02:19:30;;;;;;;11.75;6.47;;;;;;;;;;1044622;28;20052;-68
2023/10/03 02:20:16;;;;;;;11.27;7.10;;;;;;;;;;1045533;28;20044;-68
2023/10/03 02:20:51;;;;;;;10.43;6.75;;;;;;;;;;1045439;28;20481;-68
2023/10/03 02:21:21;;;;;;;12.13;6.63;;;;;;;;;;1045262;28;20091;-68
2023/10/03 02:21:59;;;;;;;12.25;6.65;;;;;;;;;;1046815;28;20037;-69
2023/10/03 02:22:31;;;;;;;12.23;7.63;;;;;;;;;;1045308;28;20101;-68
2023/10/03 02:23:05;;;;;;;11.55;6.55;;;;;;;;;;1046451;28;20094;-67
2023/10/03 02:23:35;;;;;;;11.25;6.85;;;;;;;;;;1044251;28;20134;-68
2023/10/03 02:24:06;;;;;;;11.65;7.07;;;;;;;;;;1046916;28;20050;-68
2023/10/03 02:24:37;;;;;;;11.32;6.82;;;;;;;;;;1045414;28;20070;-69
2023/10/03 02:25:09;;;;;;;9.68;7.35;;;;;;;;;;1044937;28;20107;-68
2023/10/03 02:25:40;;;;;;;12.23;6.85;;;;;;;;;;1045411;28;20056;-68
2023/10/03 02:26:11;;;;;;;11.40;7.25;;;;;;;;;;1045353;28;21661;-68
2023/10/03 02:26:42;;;;;;;11.20;7.22;;;;;;;;;;1046932;28;20515;-69
2023/10/03 02:27:13;;;;;;;12.85;6.68;;;;;;;;;;1045809;28;20040;-69
2023/10/03 02:27:43;;;;;;;10.75;6.70;;;;;;;;;;1046802;28;20063;-69
2023/10/03 02:28:16;;;;;;;11.35;7.10;;;;;;;;;;1046199;28;20059;-68
2023/10/03 02:28:46;;;;;;;12.18;6.93;;;;;;;;;;1045983;28;20179;-68
2023/10/03 02:29:17;;;;;;;15.25;6.82;;;;;;;;;;1044214;28;20106;-69
2023/10/03 02:29:51;;;;;;;11.48;6.95;;;;;;;;;;1045772;28;20052;-68
2023/10/03 02:30:30;;;;;;;12.40;7.80;;;;;;;;;;1045709;28;20052;-68
2023/10/03 02:31:07;;;;;;;11.20;6.90;;;;;;;;;;1043707;28;20522;-68
2023/10/03 02:31:37;;;;;;;12.70;6.18;;;;;;;;;;1044497;28;20090;-69
2023/10/03 02:32:08;;;;;;;12.90;7.35;;;;;;;;;;1046061;28;20253;-68
2023/10/03 02:32:40;;;;;;;11.88;6.95;;;;;;;;;;1043239;28;20853;-68
2023/10/03 02:33:15;;;;;;;11.70;6.85;;;;;;;;;;1044482;28;20077;-67
2023/10/03 02:33:45;;;;;;;10.38;7.38;;;;;;;;;;1041371;28;20060;-68
2023/10/03 02:34:16;;;;;;;12.13;6.85;;;;;;;;;;1043340;28;20049;-67
2023/10/03 02:34:47;;;;;;;10.05;7.25;;;;;;;;;;1046244;28;20063;-68
2023/10/03 02:35:21;;;;;;;11.02;7.20;;;;;;;;;;1043184;28;20041;-68
2023/10/03 02:35:51;;;;;;;11.82;7.47;;;;;;;;;;1042221;28;20060;-69
2023/10/03 02:36:22;;;;;;;11.98;7.28;;;;;;;;;;1041936;28;20056;-67
2023/10/03 02:36:52;;;;;;;13.32;7.55;;;;;;;;;;1042530;28;20049;-67
2023/10/03 02:37:23;;;;;;;13.48;7.57;;;;;;;;;;1041289;28;20041;-67
2023/10/03 02:37:58;;;;;;;13.88;7.82;;;;;;;;;;1042014;28;20652;-69
2023/10/03 02:38:36;;;;;;;13.68;7.75;;;;;;;;;;1041924;28;20134;-69
2023/10/03 02:39:07;;;;;;;17.25;7.40;;;;;;;;;;1041018;28;20098;-68
2023/10/03 02:39:39;;;;;;;10.60;7.38;;;;;;;;;;1040721;28;20048;-68
2023/10/03 02:40:10;;;;;;;11.07;6.90;;;;;;;;;;1041837;28;20053;-67
2023/10/03 02:40:41;;;;;;;11.48;7.03;;;;;;;;;;1045628;28;20052;-68
2023/10/03 02:41:12;;;;;;;13.55;7.63;;;;;;;;;;1044592;28;20063;-67
2023/10/03 02:41:43;;;;;;;10.95;6.93;;;;;;;;;;1042483;28;20758;-67
2023/10/03 02:42:14;;;;;;;10.35;7.10;;;;;;;;;;1042172;28;20561;-68
2023/10/03 02:42:45;;;;;;;10.65;6.75;;;;;;;;;;1039843;28;20130;-69
2023/10/03 02:43:15;;;;;;;12.73;7.90;;;;;;;;;;1040601;28;20045;-70
2023/10/03 02:43:47;;;;;;;14.00;7.45;;;;;;;;;;1040868;28;20045;-69
2023/10/03 02:44:17;;;;;;;12.25;7.25;;;;;;;;;;1042467;28;20445;-68
2023/10/03 02:44:50;;;;;;;13.55;6.78;;;;;;;;;;1046968;28;20914;-69
2023/10/03 02:45:25;;;;;;;13.73;6.90;;;;;;;;;;1042731;28;20795;-67
2023/10/03 02:45:56;;;;;;;15.85;7.95;;;;;;;;;;1042450;28;20099;-69
2023/10/03 02:46:26;;;;;;;12.00;7.05;;;;;;;;;;1039829;28;20092;-68
2023/10/03 02:46:58;;;;;;;13.60;7.28;;;;;;;;;;1042893;28;20040;-67
2023/10/03 02:47:29;;;;;;;11.60;7.55;;;;;;;;;;1044438;28;20052;-68
2023/10/03 02:48:14;;;;;;;12.02;7.25;;;;;;;;;;1045112;28;20072;-69
2023/10/03 02:48:44;;;;;;;10.35;6.88;;;;;;;;;;1042032;28;20827;-67
2023/10/03 02:49:15;;;;;;;10.48;6.72;;;;;;;;;;1041459;28;20815;-67
2023/10/03 02:49:45;;;;;;;13.27;6.95;;;;;;;;;;1040987;28;20048;-67
2023/10/03 02:50:16;;;;;;;10.10;6.57;;;;;;;;;;1041338;28;20060;-68
2023/10/03 02:50:48;;;;;;;12.10;7.30;;;;;;;;;;1045914;28;20821;-68
2023/10/03 02:51:18;;;;;;;10.68;7.00;;;;;;;;;;1045916;28;20394;-68
2023/10/03 02:51:49;;;;;;;11.18;7.47;;;;;;;;;;1046764;28;20483;-68
2023/10/03 02:52:20;;;;;;;10.35;6.88;;;;;;;;;;1045165;28;20052;-68
2023/10/03 02:52:52;;;;;;;11.48;7.00;;;;;;;;;;1045047;28;20049;-68
2023/10/03 02:53:22;;;;;;;12.18;7.30;;;;;;;;;;1044840;28;20057;-67
2023/10/03 02:53:53;;;;;;;13.30;7.15;;;;;;;;;;1044240;28;20045;-68
2023/10/03 02:54:23;;;;;;;9.25;6.95;;;;;;;;;;1045790;28;20044;-69
2023/10/03 02:54:54;;;;;;;10.35;7.05;;;;;;;;;;1046308;28;20058;-67
2023/10/03 02:55:25;;;;;;;12.70;7.53;;;;;;;;;;1045367;28;20499;-67
2023/10/03 02:55:55;;;;;;;12.23;7.68;;;;;;;;;;1045597;28;20044;-67
2023/10/03 02:56:27;;;;;;;11.20;7.40;;;;;;;;;;1045492;28;20051;-69
2023/10/03 02:56:57;;;;;;;10.63;6.97;;;;;;;;;;1046545;28;20048;-68
2023/10/03 02:57:28;;;;;;;11.27;7.55;;;;;;;;;;1044805;28;20068;-67
2023/10/03 02:57:59;;;;;;;12.57;7.82;;;;;;;;;;1046525;28;20467;-69
2023/10/03 02:58:30;;;;;;;10.85;7.10;;;;;;;;;;1045057;28;20052;-68
2023/10/03 02:59:02;;;;;;;15.27;7.57;;;;;;;;;;1045516;28;20925;-67
2023/10/03 02:59:33;;;;;;;13.65;7.82;;;;;;;;;;1043789;28;20075;-67
2023/10/03 03:00:14;;;;;;;12.40;7.43;;;;;;;;;;1046144;28;20436;-67
2023/10/03 03:00:46;;;;;;;10.63;7.47;;;;;;;;;;1044854;28;20144;-68
2023/10/03 03:01:17;;;;;;;14.00;8.05;;;;;;;;;;1045216;28;20048;-67
2023/10/03 03:01:52;;;;;;;12.30;7.78;;;;;;;;;;1044545;28;20056;-67
2023/10/03 03:02:23;;;;;;;15.65;7.90;;;;;;;;;;1045966;28;20087;-70
2023/10/03 03:02:54;;;;;;;11.48;7.70;;;;;;;;;;1044293;28;20655;-69
2023/10/03 03:03:30;;;;;;;13.38;7.60;;;;;;;;;;1045379;28;20068;-69
2023/10/03 03:04:02;;;;;;;13.40;7.95;;;;;;;;;;1044204;28;20132;-68
2023/10/03 03:04:33;;;;;;;12.60;7.75;;;;;;;;;;1046118;28;20048;-68
2023/10/03 03:05:05;;;;;;;14.68;7.85;;;;;;;;;;1046168;28;20161;-66
2023/10/03 03:05:37;;;;;;;11.80;7.50;;;;;;;;;;1046211;28;20052;-67
2023/10/03 03:06:12;;;;;;;11.57;7.20;;;;;;;;;;1042783;28;20045;-68
2023/10/03 03:06:46;;;;;;;12.07;8.00;;;;;;;;;;1044775;28;20056;-68
2023/10/03 03:07:18;;;;;;;12.32;7.15;;;;;;;;;;1044690;28;20048;-68
2023/10/03 03:07:49;;;;;;;12.98;7.82;;;;;;;;;;1045678;28;20488;-68
2023/10/03 03:08:52;;;;;;;13.27;7.05;;;;;;;;;;1045617;28;20044;-68
2023/10/03 03:09:23;;;;;;;11.80;7.70;;;;;;;;;;1044404;28;20051;-67
2023/10/03 03:09:59;;;;;;;10.05;7.40;;;;;;;;;;1045772;28;20414;-67
2023/10/03 03:10:30;;;;;;;11.85;7.90;;;;;;;;;;1043406;28;20060;-68